sensor_id;sensor_type;location;lat;lon;timestamp;P1;durP1;ratioP1;P2;durP2;ratioP2
72125;SDS011;59999;51.676;22.650;2022-08-11T00:00:09;8.33;;;3.70;;
72125;SDS011;59999;51.676;22.650;2022-08-11T00:02:56;11.00;;;4.00;;
72125;SDS011;59999;51.676;22.650;2022-08-11T00:05:29;9.70;;;3.72;;
72125;SDS011;59999;51.676;22.650;2022-08-11T00:07:56;7.13;;;3.45;;
72125;SDS011;59999;51.676;22.650;2022-08-11T00:10:24;8.32;;;3.78;;
72125;SDS011;59999;51.676;22.650;2022-08-11T00:12:59;8.47;;;3.50;;
72125;SDS011;59999;51.676;22.650;2022-08-11T00:15:36;8.80;;;3.72;;
72125;SDS011;59999;51.676;22.650;2022-08-11T00:18:06;7.78;;;3.58;;
72125;SDS011;59999;51.676;22.650;2022-08-11T00:20:34;8.10;;;3.45;;
72125;SDS011;59999;51.676;22.650;2022-08-11T00:23:11;7.93;;;3.50;;
72125;SDS011;59999;51.676;22.650;2022-08-11T00:25:43;7.63;;;3.70;;
72125;SDS011;59999;51.676;22.650;2022-08-11T00:28:23;9.20;;;3.97;;
72125;SDS011;59999;51.676;22.650;2022-08-11T00:30:51;9.82;;;3.97;;
72125;SDS011;59999;51.676;22.650;2022-08-11T00:33:22;10.15;;;3.78;;
72125;SDS011;59999;51.676;22.650;2022-08-11T00:35:58;7.47;;;3.70;;
72125;SDS011;59999;51.676;22.650;2022-08-11T00:38:28;8.07;;;3.73;;
72125;SDS011;59999;51.676;22.650;2022-08-11T00:41:03;7.38;;;3.58;;
72125;SDS011;59999;51.676;22.650;2022-08-11T00:44:18;8.48;;;4.00;;
72125;SDS011;59999;51.676;22.650;2022-08-11T00:55:00;9.23;;;4.13;;
72125;SDS011;59999;51.676;22.650;2022-08-11T00:57:43;9.48;;;3.63;;
72125;SDS011;59999;51.676;22.650;2022-08-11T01:00:32;8.43;;;3.95;;
72125;SDS011;59999;51.676;22.650;2022-08-11T01:17:48;10.02;;;3.78;;
72125;SDS011;59999;51.676;22.650;2022-08-11T01:24:01;11.20;;;4.43;;
72125;SDS011;59999;51.676;22.650;2022-08-11T01:55:15;8.40;;;4.07;;
72125;SDS011;59999;51.676;22.650;2022-08-11T02:00:26;12.57;;;5.05;;
72125;SDS011;59999;51.676;22.650;2022-08-11T02:03:07;10.60;;;4.30;;
72125;SDS011;59999;51.676;22.650;2022-08-11T02:05:53;8.50;;;4.00;;
72125;SDS011;59999;51.676;22.650;2022-08-11T02:11:22;8.65;;;4.30;;
72125;SDS011;59999;51.676;22.650;2022-08-11T02:25:44;9.48;;;3.92;;
72125;SDS011;59999;51.676;22.650;2022-08-11T02:28:23;7.65;;;3.90;;
72125;SDS011;59999;51.676;22.650;2022-08-11T02:37:45;10.63;;;4.30;;
72125;SDS011;59999;51.676;22.650;2022-08-11T02:40:34;9.38;;;3.97;;
72125;SDS011;59999;51.676;22.650;2022-08-11T02:43:34;9.82;;;4.35;;
72125;SDS011;59999;51.676;22.650;2022-08-11T02:46:17;11.53;;;4.80;;
72125;SDS011;59999;51.676;22.650;2022-08-11T02:48:50;9.00;;;4.22;;
72125;SDS011;59999;51.676;22.650;2022-08-11T02:54:26;9.25;;;4.28;;
72125;SDS011;59999;51.676;22.650;2022-08-11T02:57:21;10.57;;;4.43;;
72125;SDS011;59999;51.676;22.650;2022-08-11T02:59:59;12.60;;;4.27;;
72125;SDS011;59999;51.676;22.650;2022-08-11T03:20:15;9.43;;;4.20;;
72125;SDS011;59999;51.676;22.650;2022-08-11T03:23:16;9.40;;;4.05;;
72125;SDS011;59999;51.676;22.650;2022-08-11T03:25:57;8.45;;;4.28;;
72125;SDS011;59999;51.676;22.650;2022-08-11T03:31:22;7.57;;;3.88;;
72125;SDS011;59999;51.676;22.650;2022-08-11T03:45:29;10.10;;;4.13;;
72125;SDS011;59999;51.676;22.650;2022-08-11T03:48:18;9.10;;;4.30;;
72125;SDS011;59999;51.676;22.650;2022-08-11T03:51:13;8.88;;;3.90;;
72125;SDS011;59999;51.676;22.650;2022-08-11T03:59:49;8.75;;;4.10;;
72125;SDS011;59999;51.676;22.650;2022-08-11T04:03:00;7.93;;;4.03;;
72125;SDS011;59999;51.676;22.650;2022-08-11T04:08:26;8.70;;;3.95;;
72125;SDS011;59999;51.676;22.650;2022-08-11T04:32:09;10.73;;;4.10;;
72125;SDS011;59999;51.676;22.650;2022-08-11T04:55:54;7.07;;;3.67;;
72125;SDS011;59999;51.676;22.650;2022-08-11T05:15:13;7.40;;;3.90;;
72125;SDS011;59999;51.676;22.650;2022-08-11T05:18:06;7.53;;;4.00;;
72125;SDS011;59999;51.676;22.650;2022-08-11T05:20:57;10.13;;;3.83;;
72125;SDS011;59999;51.676;22.650;2022-08-11T05:23:54;8.90;;;4.10;;
72125;SDS011;59999;51.676;22.650;2022-08-11T05:27:00;17.05;;;3.80;;
72125;SDS011;59999;51.676;22.650;2022-08-11T05:30:03;8.30;;;3.60;;
72125;SDS011;59999;51.676;22.650;2022-08-11T05:33:02;8.90;;;3.50;;
72125;SDS011;59999;51.676;22.650;2022-08-11T05:35:56;8.63;;;3.38;;
72125;SDS011;59999;51.676;22.650;2022-08-11T05:38:32;8.57;;;3.80;;
72125;SDS011;59999;51.676;22.650;2022-08-11T05:41:21;5.93;;;3.08;;
72125;SDS011;59999;51.676;22.650;2022-08-11T05:44:07;8.88;;;3.42;;
72125;SDS011;59999;51.676;22.650;2022-08-11T05:46:53;6.85;;;3.47;;
72125;SDS011;59999;51.676;22.650;2022-08-11T05:49:39;6.32;;;3.65;;
72125;SDS011;59999;51.676;22.650;2022-08-11T05:52:28;7.67;;;3.47;;
72125;SDS011;59999;51.676;22.650;2022-08-11T05:55:13;7.47;;;3.70;;
72125;SDS011;59999;51.676;22.650;2022-08-11T05:58:04;8.52;;;3.42;;
72125;SDS011;59999;51.676;22.650;2022-08-11T06:00:40;7.88;;;3.67;;
72125;SDS011;59999;51.676;22.650;2022-08-11T06:03:11;8.70;;;3.80;;
72125;SDS011;59999;51.676;22.650;2022-08-11T06:05:49;7.60;;;3.20;;
72125;SDS011;59999;51.676;22.650;2022-08-11T06:08:16;5.97;;;3.10;;
72125;SDS011;59999;51.676;22.650;2022-08-11T06:10:43;8.13;;;3.67;;
72125;SDS011;59999;51.676;22.650;2022-08-11T06:13:13;6.40;;;3.22;;
72125;SDS011;59999;51.676;22.650;2022-08-11T06:15:47;8.30;;;3.20;;
72125;SDS011;59999;51.676;22.650;2022-08-11T06:18:15;8.30;;;3.37;;
72125;SDS011;59999;51.676;22.650;2022-08-11T06:20:45;5.90;;;2.83;;
72125;SDS011;59999;51.676;22.650;2022-08-11T06:23:13;5.43;;;2.80;;
72125;SDS011;59999;51.676;22.650;2022-08-11T06:25:43;6.63;;;3.00;;
72125;SDS011;59999;51.676;22.650;2022-08-11T06:28:09;9.32;;;2.90;;
72125;SDS011;59999;51.676;22.650;2022-08-11T06:30:37;6.90;;;2.90;;
72125;SDS011;59999;51.676;22.650;2022-08-11T06:33:08;5.20;;;2.50;;
72125;SDS011;59999;51.676;22.650;2022-08-11T06:41:33;6.88;;;2.78;;
72125;SDS011;59999;51.676;22.650;2022-08-11T06:49:04;5.88;;;2.70;;
72125;SDS011;59999;51.676;22.650;2022-08-11T06:51:53;5.43;;;2.63;;
72125;SDS011;59999;51.676;22.650;2022-08-11T06:54:21;6.55;;;2.80;;
72125;SDS011;59999;51.676;22.650;2022-08-11T06:56:47;6.05;;;2.85;;
72125;SDS011;59999;51.676;22.650;2022-08-11T06:59:33;6.68;;;2.47;;
72125;SDS011;59999;51.676;22.650;2022-08-11T07:02:20;5.68;;;2.58;;
72125;SDS011;59999;51.676;22.650;2022-08-11T07:05:02;4.40;;;2.30;;
72125;SDS011;59999;51.676;22.650;2022-08-11T07:13:22;4.15;;;2.17;;
72125;SDS011;59999;51.676;22.650;2022-08-11T07:16:08;6.10;;;2.55;;
72125;SDS011;59999;51.676;22.650;2022-08-11T07:18:35;6.20;;;2.20;;
72125;SDS011;59999;51.676;22.650;2022-08-11T07:21:31;5.60;;;2.47;;
72125;SDS011;59999;51.676;22.650;2022-08-11T07:24:26;4.47;;;2.17;;
72125;SDS011;59999;51.676;22.650;2022-08-11T07:27:17;5.15;;;2.30;;
72125;SDS011;59999;51.676;22.650;2022-08-11T07:30:05;5.07;;;2.50;;
72125;SDS011;59999;51.676;22.650;2022-08-11T07:32:36;4.77;;;2.37;;
72125;SDS011;59999;51.676;22.650;2022-08-11T07:35:14;5.05;;;2.17;;
72125;SDS011;59999;51.676;22.650;2022-08-11T07:37:44;5.43;;;2.30;;
72125;SDS011;59999;51.676;22.650;2022-08-11T07:40:19;5.47;;;2.33;;
72125;SDS011;59999;51.676;22.650;2022-08-11T07:42:47;5.72;;;2.63;;
72125;SDS011;59999;51.676;22.650;2022-08-11T07:45:14;5.30;;;2.20;;
72125;SDS011;59999;51.676;22.650;2022-08-11T07:47:59;5.30;;;2.20;;
72125;SDS011;59999;51.676;22.650;2022-08-11T07:50:44;4.25;;;2.13;;
72125;SDS011;59999;51.676;22.650;2022-08-11T07:53:30;6.05;;;2.25;;
72125;SDS011;59999;51.676;22.650;2022-08-11T07:55:59;7.28;;;2.60;;
72125;SDS011;59999;51.676;22.650;2022-08-11T07:58:27;5.17;;;2.13;;
72125;SDS011;59999;51.676;22.650;2022-08-11T08:01:18;4.85;;;2.20;;
72125;SDS011;59999;51.676;22.650;2022-08-11T08:04:07;5.20;;;2.05;;
72125;SDS011;59999;51.676;22.650;2022-08-11T08:06:53;4.20;;;2.40;;
72125;SDS011;59999;51.676;22.650;2022-08-11T08:09:39;4.88;;;2.30;;
72125;SDS011;59999;51.676;22.650;2022-08-11T08:12:26;5.17;;;2.20;;
72125;SDS011;59999;51.676;22.650;2022-08-11T08:15:13;5.30;;;2.13;;
72125;SDS011;59999;51.676;22.650;2022-08-11T08:18:00;4.82;;;2.40;;
72125;SDS011;59999;51.676;22.650;2022-08-11T08:20:29;5.13;;;1.88;;
72125;SDS011;59999;51.676;22.650;2022-08-11T08:23:00;5.65;;;2.20;;
72125;SDS011;59999;51.676;22.650;2022-08-11T08:25:30;4.53;;;2.40;;
72125;SDS011;59999;51.676;22.650;2022-08-11T08:27:59;4.20;;;2.10;;
72125;SDS011;59999;51.676;22.650;2022-08-11T08:30:28;7.50;;;2.30;;
72125;SDS011;59999;51.676;22.650;2022-08-11T08:33:23;15.43;;;3.10;;
72125;SDS011;59999;51.676;22.650;2022-08-11T08:36:02;5.93;;;2.30;;
72125;SDS011;59999;51.676;22.650;2022-08-11T08:38:47;12.30;;;2.47;;
72125;SDS011;59999;51.676;22.650;2022-08-11T08:41:21;6.05;;;2.25;;
72125;SDS011;59999;51.676;22.650;2022-08-11T08:43:52;5.28;;;2.03;;
72125;SDS011;59999;51.676;22.650;2022-08-11T08:46:21;4.97;;;2.10;;
72125;SDS011;59999;51.676;22.650;2022-08-11T08:48:59;5.07;;;2.05;;
72125;SDS011;59999;51.676;22.650;2022-08-11T08:51:27;4.30;;;1.80;;
72125;SDS011;59999;51.676;22.650;2022-08-11T08:54:10;3.63;;;1.77;;
72125;SDS011;59999;51.676;22.650;2022-08-11T08:56:41;4.38;;;2.03;;
72125;SDS011;59999;51.676;22.650;2022-08-11T08:59:10;4.72;;;1.90;;
72125;SDS011;59999;51.676;22.650;2022-08-11T09:01:42;5.15;;;2.20;;
72125;SDS011;59999;51.676;22.650;2022-08-11T09:04:14;5.53;;;1.80;;
72125;SDS011;59999;51.676;22.650;2022-08-11T09:06:41;5.00;;;2.28;;
72125;SDS011;59999;51.676;22.650;2022-08-11T09:09:09;4.82;;;2.10;;
72125;SDS011;59999;51.676;22.650;2022-08-11T09:11:39;7.68;;;1.95;;
72125;SDS011;59999;51.676;22.650;2022-08-11T09:17:11;4.30;;;1.87;;
72125;SDS011;59999;51.676;22.650;2022-08-11T09:19:38;4.13;;;1.80;;
72125;SDS011;59999;51.676;22.650;2022-08-11T09:22:04;5.97;;;2.10;;
72125;SDS011;59999;51.676;22.650;2022-08-11T09:24:49;4.80;;;2.10;;
72125;SDS011;59999;51.676;22.650;2022-08-11T09:27:48;4.38;;;2.22;;
72125;SDS011;59999;51.676;22.650;2022-08-11T09:30:15;5.80;;;2.10;;
72125;SDS011;59999;51.676;22.650;2022-08-11T09:32:43;5.40;;;2.05;;
72125;SDS011;59999;51.676;22.650;2022-08-11T09:35:09;3.95;;;2.05;;
72125;SDS011;59999;51.676;22.650;2022-08-11T09:37:36;4.40;;;2.35;;
72125;SDS011;59999;51.676;22.650;2022-08-11T09:40:21;6.63;;;2.08;;
72125;SDS011;59999;51.676;22.650;2022-08-11T09:42:56;3.77;;;1.50;;
72125;SDS011;59999;51.676;22.650;2022-08-11T09:45:45;5.35;;;1.50;;
72125;SDS011;59999;51.676;22.650;2022-08-11T09:48:19;4.30;;;1.70;;
72125;SDS011;59999;51.676;22.650;2022-08-11T09:50:50;4.22;;;1.90;;
72125;SDS011;59999;51.676;22.650;2022-08-11T09:53:19;4.00;;;2.03;;
72125;SDS011;59999;51.676;22.650;2022-08-11T09:55:46;4.67;;;1.83;;
72125;SDS011;59999;51.676;22.650;2022-08-11T09:58:13;5.53;;;1.88;;
72125;SDS011;59999;51.676;22.650;2022-08-11T10:00:44;5.07;;;2.00;;
72125;SDS011;59999;51.676;22.650;2022-08-11T10:03:23;5.68;;;2.35;;
72125;SDS011;59999;51.676;22.650;2022-08-11T10:06:01;4.38;;;1.95;;
72125;SDS011;59999;51.676;22.650;2022-08-11T10:08:47;5.87;;;2.00;;
72125;SDS011;59999;51.676;22.650;2022-08-11T10:11:17;4.60;;;1.85;;
72125;SDS011;59999;51.676;22.650;2022-08-11T10:13:47;6.85;;;1.88;;
72125;SDS011;59999;51.676;22.650;2022-08-11T10:16:36;5.30;;;1.98;;
72125;SDS011;59999;51.676;22.650;2022-08-11T10:19:05;4.68;;;1.70;;
72125;SDS011;59999;51.676;22.650;2022-08-11T10:24:31;5.93;;;2.20;;
72125;SDS011;59999;51.676;22.650;2022-08-11T10:27:16;3.95;;;1.88;;
72125;SDS011;59999;51.676;22.650;2022-08-11T10:29:43;4.00;;;2.08;;
72125;SDS011;59999;51.676;22.650;2022-08-11T10:32:29;3.60;;;1.70;;
72125;SDS011;59999;51.676;22.650;2022-08-11T10:35:15;6.40;;;1.87;;
72125;SDS011;59999;51.676;22.650;2022-08-11T10:37:43;3.60;;;1.70;;
72125;SDS011;59999;51.676;22.650;2022-08-11T10:40:14;4.10;;;1.90;;
72125;SDS011;59999;51.676;22.650;2022-08-11T10:42:42;5.30;;;1.90;;
72125;SDS011;59999;51.676;22.650;2022-08-11T10:45:30;5.07;;;1.92;;
72125;SDS011;59999;51.676;22.650;2022-08-11T10:48:18;5.47;;;1.70;;
72125;SDS011;59999;51.676;22.650;2022-08-11T10:50:46;3.97;;;1.60;;
72125;SDS011;59999;51.676;22.650;2022-08-11T10:53:37;5.30;;;1.48;;
72125;SDS011;59999;51.676;22.650;2022-08-11T10:56:30;4.47;;;1.50;;
72125;SDS011;59999;51.676;22.650;2022-08-11T10:59:18;3.33;;;1.45;;
72125;SDS011;59999;51.676;22.650;2022-08-11T11:01:46;4.37;;;1.50;;
72125;SDS011;59999;51.676;22.650;2022-08-11T11:04:16;4.88;;;1.80;;
72125;SDS011;59999;51.676;22.650;2022-08-11T11:09:56;6.38;;;2.00;;
72125;SDS011;59999;51.676;22.650;2022-08-11T11:12:28;5.05;;;1.80;;
72125;SDS011;59999;51.676;22.650;2022-08-11T11:15:20;6.93;;;1.60;;
72125;SDS011;59999;51.676;22.650;2022-08-11T11:18:27;16.27;;;3.17;;
72125;SDS011;59999;51.676;22.650;2022-08-11T11:21:07;3.88;;;1.40;;
72125;SDS011;59999;51.676;22.650;2022-08-11T11:24:11;4.72;;;1.20;;
72125;SDS011;59999;51.676;22.650;2022-08-11T11:27:19;5.10;;;1.42;;
72125;SDS011;59999;51.676;22.650;2022-08-11T11:32:36;3.30;;;1.67;;
72125;SDS011;59999;51.676;22.650;2022-08-11T11:35:18;4.47;;;1.60;;
72125;SDS011;59999;51.676;22.650;2022-08-11T11:37:51;2.97;;;1.40;;
72125;SDS011;59999;51.676;22.650;2022-08-11T11:40:18;3.30;;;1.83;;
72125;SDS011;59999;51.676;22.650;2022-08-11T11:42:47;3.00;;;1.33;;
72125;SDS011;59999;51.676;22.650;2022-08-11T11:45:16;11.00;;;1.40;;
72125;SDS011;59999;51.676;22.650;2022-08-11T11:47:43;5.65;;;1.50;;
72125;SDS011;59999;51.676;22.650;2022-08-11T11:50:11;4.03;;;1.45;;
72125;SDS011;59999;51.676;22.650;2022-08-11T11:52:38;5.80;;;1.55;;
72125;SDS011;59999;51.676;22.650;2022-08-11T11:55:07;3.70;;;1.27;;
72125;SDS011;59999;51.676;22.650;2022-08-11T11:57:34;2.97;;;0.98;;
72125;SDS011;59999;51.676;22.650;2022-08-11T12:00:20;4.45;;;1.10;;
72125;SDS011;59999;51.676;22.650;2022-08-11T12:03:06;6.70;;;1.30;;
72125;SDS011;59999;51.676;22.650;2022-08-11T12:05:35;3.90;;;1.90;;
72125;SDS011;59999;51.676;22.650;2022-08-11T12:08:02;3.90;;;1.57;;
72125;SDS011;59999;51.676;22.650;2022-08-11T12:10:40;9.50;;;2.28;;
72125;SDS011;59999;51.676;22.650;2022-08-11T12:13:12;5.93;;;1.98;;
72125;SDS011;59999;51.676;22.650;2022-08-11T12:15:59;7.32;;;2.40;;
72125;SDS011;59999;51.676;22.650;2022-08-11T12:18:29;5.28;;;1.90;;
72125;SDS011;59999;51.676;22.650;2022-08-11T12:21:00;5.20;;;2.10;;
72125;SDS011;59999;51.676;22.650;2022-08-11T12:23:27;4.72;;;2.10;;
72125;SDS011;59999;51.676;22.650;2022-08-11T12:26:15;6.45;;;2.10;;
72125;SDS011;59999;51.676;22.650;2022-08-11T12:29:01;4.65;;;2.00;;
72125;SDS011;59999;51.676;22.650;2022-08-11T12:31:30;5.15;;;2.40;;
72125;SDS011;59999;51.676;22.650;2022-08-11T12:34:03;5.03;;;2.03;;
72125;SDS011;59999;51.676;22.650;2022-08-11T12:36:32;4.47;;;2.10;;
72125;SDS011;59999;51.676;22.650;2022-08-11T12:39:02;6.00;;;1.70;;
72125;SDS011;59999;51.676;22.650;2022-08-11T12:41:32;4.00;;;1.65;;
72125;SDS011;59999;51.676;22.650;2022-08-11T12:44:18;4.70;;;1.65;;
72125;SDS011;59999;51.676;22.650;2022-08-11T12:47:06;5.40;;;1.50;;
72125;SDS011;59999;51.676;22.650;2022-08-11T12:49:34;4.13;;;1.75;;
72125;SDS011;59999;51.676;22.650;2022-08-11T12:52:23;5.28;;;1.90;;
72125;SDS011;59999;51.676;22.650;2022-08-11T12:57:36;6.22;;;2.10;;
72125;SDS011;59999;51.676;22.650;2022-08-11T13:00:22;5.30;;;1.97;;
72125;SDS011;59999;51.676;22.650;2022-08-11T13:03:09;4.30;;;1.83;;
72125;SDS011;59999;51.676;22.650;2022-08-11T13:05:56;4.78;;;1.90;;
72125;SDS011;59999;51.676;22.650;2022-08-11T13:08:24;4.60;;;2.10;;
72125;SDS011;59999;51.676;22.650;2022-08-11T13:10:54;5.15;;;2.08;;
72125;SDS011;59999;51.676;22.650;2022-08-11T13:13:41;3.80;;;2.10;;
72125;SDS011;59999;51.676;22.650;2022-08-11T13:16:09;4.30;;;2.10;;
72125;SDS011;59999;51.676;22.650;2022-08-11T13:18:35;4.30;;;1.85;;
72125;SDS011;59999;51.676;22.650;2022-08-11T13:21:08;5.95;;;2.03;;
72125;SDS011;59999;51.676;22.650;2022-08-11T13:23:35;4.70;;;2.05;;
72125;SDS011;59999;51.676;22.650;2022-08-11T13:26:02;4.60;;;2.10;;
72125;SDS011;59999;51.676;22.650;2022-08-11T13:28:29;6.95;;;2.17;;
72125;SDS011;59999;51.676;22.650;2022-08-11T13:30:56;6.80;;;2.40;;
72125;SDS011;59999;51.676;22.650;2022-08-11T13:33:48;6.05;;;2.35;;
72125;SDS011;59999;51.676;22.650;2022-08-11T13:36:20;5.05;;;2.10;;
72125;SDS011;59999;51.676;22.650;2022-08-11T13:38:50;4.70;;;2.03;;
72125;SDS011;59999;51.676;22.650;2022-08-11T13:41:19;5.07;;;2.20;;
72125;SDS011;59999;51.676;22.650;2022-08-11T13:44:07;9.13;;;2.83;;
72125;SDS011;59999;51.676;22.650;2022-08-11T13:46:34;14.93;;;4.13;;
72125;SDS011;59999;51.676;22.650;2022-08-11T13:49:01;7.57;;;2.63;;
72125;SDS011;59999;51.676;22.650;2022-08-11T13:51:28;5.50;;;2.77;;
72125;SDS011;59999;51.676;22.650;2022-08-11T13:53:57;5.55;;;3.05;;
72125;SDS011;59999;51.676;22.650;2022-08-11T13:56:30;6.28;;;2.67;;
72125;SDS011;59999;51.676;22.650;2022-08-11T13:58:57;13.73;;;3.17;;
72125;SDS011;59999;51.676;22.650;2022-08-11T14:01:27;8.57;;;3.55;;
72125;SDS011;59999;51.676;22.650;2022-08-11T14:03:58;7.50;;;2.70;;
72125;SDS011;59999;51.676;22.650;2022-08-11T14:06:30;7.55;;;1.90;;
72125;SDS011;59999;51.676;22.650;2022-08-11T14:08:56;4.53;;;1.75;;
72125;SDS011;59999;51.676;22.650;2022-08-11T14:11:24;6.60;;;2.50;;
72125;SDS011;59999;51.676;22.650;2022-08-11T14:14:12;5.07;;;2.70;;
72125;SDS011;59999;51.676;22.650;2022-08-11T14:16:45;8.63;;;2.47;;
72125;SDS011;59999;51.676;22.650;2022-08-11T14:19:14;14.65;;;2.67;;
72125;SDS011;59999;51.676;22.650;2022-08-11T14:21:42;5.70;;;2.13;;
72125;SDS011;59999;51.676;22.650;2022-08-11T14:24:28;4.63;;;2.15;;
72125;SDS011;59999;51.676;22.650;2022-08-11T14:26:56;6.57;;;2.25;;
72125;SDS011;59999;51.676;22.650;2022-08-11T14:29:24;4.83;;;2.20;;
72125;SDS011;59999;51.676;22.650;2022-08-11T14:31:53;6.38;;;2.60;;
72125;SDS011;59999;51.676;22.650;2022-08-11T14:34:26;4.35;;;2.20;;
72125;SDS011;59999;51.676;22.650;2022-08-11T14:36:58;6.88;;;2.55;;
72125;SDS011;59999;51.676;22.650;2022-08-11T14:39:46;5.25;;;2.65;;
72125;SDS011;59999;51.676;22.650;2022-08-11T14:42:22;5.63;;;2.50;;
72125;SDS011;59999;51.676;22.650;2022-08-11T14:45:12;7.85;;;2.80;;
72125;SDS011;59999;51.676;22.650;2022-08-11T14:48:03;6.13;;;2.53;;
72125;SDS011;59999;51.676;22.650;2022-08-11T14:50:33;5.35;;;2.58;;
72125;SDS011;59999;51.676;22.650;2022-08-11T14:53:00;5.28;;;2.60;;
72125;SDS011;59999;51.676;22.650;2022-08-11T14:55:30;5.57;;;2.73;;
72125;SDS011;59999;51.676;22.650;2022-08-11T14:58:19;6.50;;;2.83;;
72125;SDS011;59999;51.676;22.650;2022-08-11T15:00:51;5.88;;;2.47;;
72125;SDS011;59999;51.676;22.650;2022-08-11T15:03:19;4.72;;;2.20;;
72125;SDS011;59999;51.676;22.650;2022-08-11T15:05:55;5.97;;;2.25;;
72125;SDS011;59999;51.676;22.650;2022-08-11T15:08:25;5.37;;;2.20;;
72125;SDS011;59999;51.676;22.650;2022-08-11T15:11:14;5.13;;;2.47;;
72125;SDS011;59999;51.676;22.650;2022-08-11T15:14:01;5.43;;;2.40;;
72125;SDS011;59999;51.676;22.650;2022-08-11T15:16:29;5.78;;;2.17;;
72125;SDS011;59999;51.676;22.650;2022-08-11T15:19:14;5.47;;;2.28;;
72125;SDS011;59999;51.676;22.650;2022-08-11T15:21:43;5.50;;;2.33;;
72125;SDS011;59999;51.676;22.650;2022-08-11T15:24:29;5.00;;;2.20;;
72125;SDS011;59999;51.676;22.650;2022-08-11T15:26:55;4.30;;;1.80;;
72125;SDS011;59999;51.676;22.650;2022-08-11T15:29:41;4.07;;;1.90;;
72125;SDS011;59999;51.676;22.650;2022-08-11T15:32:26;4.97;;;2.20;;
72125;SDS011;59999;51.676;22.650;2022-08-11T15:35:13;5.10;;;2.07;;
72125;SDS011;59999;51.676;22.650;2022-08-11T15:37:59;5.72;;;1.70;;
72125;SDS011;59999;51.676;22.650;2022-08-11T15:40:30;4.63;;;2.10;;
72125;SDS011;59999;51.676;22.650;2022-08-11T15:43:20;4.50;;;1.83;;
72125;SDS011;59999;51.676;22.650;2022-08-11T15:46:10;3.95;;;1.90;;
72125;SDS011;59999;51.676;22.650;2022-08-11T15:48:55;6.10;;;2.50;;
72125;SDS011;59999;51.676;22.650;2022-08-11T15:51:35;4.15;;;1.90;;
72125;SDS011;59999;51.676;22.650;2022-08-11T15:54:09;4.53;;;2.08;;
72125;SDS011;59999;51.676;22.650;2022-08-11T15:56:39;5.00;;;2.10;;
72125;SDS011;59999;51.676;22.650;2022-08-11T15:59:07;5.38;;;2.20;;
72125;SDS011;59999;51.676;22.650;2022-08-11T16:01:54;5.03;;;2.20;;
72125;SDS011;59999;51.676;22.650;2022-08-11T16:04:41;4.75;;;2.05;;
72125;SDS011;59999;51.676;22.650;2022-08-11T16:07:11;4.35;;;2.05;;
72125;SDS011;59999;51.676;22.650;2022-08-11T16:09:41;5.75;;;2.40;;
72125;SDS011;59999;51.676;22.650;2022-08-11T16:12:12;5.07;;;2.20;;
72125;SDS011;59999;51.676;22.650;2022-08-11T16:14:42;4.43;;;2.10;;
72125;SDS011;59999;51.676;22.650;2022-08-11T16:17:30;7.13;;;2.35;;
72125;SDS011;59999;51.676;22.650;2022-08-11T16:19:58;6.47;;;2.60;;
72125;SDS011;59999;51.676;22.650;2022-08-11T16:22:27;4.93;;;2.40;;
72125;SDS011;59999;51.676;22.650;2022-08-11T16:25:24;5.40;;;2.53;;
72125;SDS011;59999;51.676;22.650;2022-08-11T16:27:51;5.07;;;2.67;;
72125;SDS011;59999;51.676;22.650;2022-08-11T16:30:20;5.60;;;2.53;;
72125;SDS011;59999;51.676;22.650;2022-08-11T16:32:48;6.00;;;2.47;;
72125;SDS011;59999;51.676;22.650;2022-08-11T16:35:18;4.70;;;2.20;;
72125;SDS011;59999;51.676;22.650;2022-08-11T16:38:07;4.47;;;2.20;;
72125;SDS011;59999;51.676;22.650;2022-08-11T16:40:54;5.30;;;2.23;;
72125;SDS011;59999;51.676;22.650;2022-08-11T16:43:24;5.93;;;2.08;;
72125;SDS011;59999;51.676;22.650;2022-08-11T16:46:12;5.80;;;2.50;;
72125;SDS011;59999;51.676;22.650;2022-08-11T16:49:00;5.65;;;2.40;;
72125;SDS011;59999;51.676;22.650;2022-08-11T16:51:29;5.28;;;2.55;;
72125;SDS011;59999;51.676;22.650;2022-08-11T16:53:55;5.83;;;2.77;;
72125;SDS011;59999;51.676;22.650;2022-08-11T16:56:23;6.88;;;3.20;;
72125;SDS011;59999;51.676;22.650;2022-08-11T16:58:56;7.95;;;3.40;;
72125;SDS011;59999;51.676;22.650;2022-08-11T17:01:40;6.38;;;3.70;;
72125;SDS011;59999;51.676;22.650;2022-08-11T17:07:13;7.03;;;3.53;;
72125;SDS011;59999;51.676;22.650;2022-08-11T17:10:02;8.25;;;4.38;;
72125;SDS011;59999;51.676;22.650;2022-08-11T17:12:49;8.68;;;4.85;;
72125;SDS011;59999;51.676;22.650;2022-08-11T17:15:36;7.78;;;4.57;;
72125;SDS011;59999;51.676;22.650;2022-08-11T17:18:25;8.70;;;4.50;;
72125;SDS011;59999;51.676;22.650;2022-08-11T17:21:08;9.07;;;5.00;;
72125;SDS011;59999;51.676;22.650;2022-08-11T17:23:42;10.23;;;4.53;;
72125;SDS011;59999;51.676;22.650;2022-08-11T17:26:18;9.57;;;3.95;;
72125;SDS011;59999;51.676;22.650;2022-08-11T17:28:54;8.20;;;3.90;;
72125;SDS011;59999;51.676;22.650;2022-08-11T17:31:23;9.30;;;4.78;;
72125;SDS011;59999;51.676;22.650;2022-08-11T17:34:10;7.37;;;4.03;;
72125;SDS011;59999;51.676;22.650;2022-08-11T17:37:16;8.30;;;3.80;;
72125;SDS011;59999;51.676;22.650;2022-08-11T17:39:43;7.43;;;3.88;;
72125;SDS011;59999;51.676;22.650;2022-08-11T17:42:11;7.65;;;4.35;;
72125;SDS011;59999;51.676;22.650;2022-08-11T17:44:58;6.97;;;4.30;;
72125;SDS011;59999;51.676;22.650;2022-08-11T17:47:44;7.57;;;4.00;;
72125;SDS011;59999;51.676;22.650;2022-08-11T17:50:29;9.93;;;4.25;;
72125;SDS011;59999;51.676;22.650;2022-08-11T17:52:57;7.97;;;4.13;;
72125;SDS011;59999;51.676;22.650;2022-08-11T17:55:42;8.95;;;4.60;;
72125;SDS011;59999;51.676;22.650;2022-08-11T17:58:29;7.15;;;4.15;;
72125;SDS011;59999;51.676;22.650;2022-08-11T18:01:16;7.43;;;4.10;;
72125;SDS011;59999;51.676;22.650;2022-08-11T18:03:44;6.78;;;4.40;;
72125;SDS011;59999;51.676;22.650;2022-08-11T18:06:11;7.65;;;4.20;;
72125;SDS011;59999;51.676;22.650;2022-08-11T18:08:42;9.88;;;4.22;;
72125;SDS011;59999;51.676;22.650;2022-08-11T18:11:28;9.65;;;4.68;;
72125;SDS011;59999;51.676;22.650;2022-08-11T18:14:14;9.57;;;4.87;;
72125;SDS011;59999;51.676;22.650;2022-08-11T18:17:01;8.10;;;5.00;;
72125;SDS011;59999;51.676;22.650;2022-08-11T18:19:46;9.40;;;4.95;;
72125;SDS011;59999;51.676;22.650;2022-08-11T18:22:32;8.38;;;5.28;;
72125;SDS011;59999;51.676;22.650;2022-08-11T18:25:28;9.35;;;4.60;;
72125;SDS011;59999;51.676;22.650;2022-08-11T18:28:16;7.73;;;4.70;;
72125;SDS011;59999;51.676;22.650;2022-08-11T18:31:08;7.00;;;4.25;;
72125;SDS011;59999;51.676;22.650;2022-08-11T18:33:59;7.65;;;4.60;;
72125;SDS011;59999;51.676;22.650;2022-08-11T18:36:51;9.05;;;4.80;;
72125;SDS011;59999;51.676;22.650;2022-08-11T18:39:48;8.82;;;4.53;;
72125;SDS011;59999;51.676;22.650;2022-08-11T18:42:43;10.60;;;4.50;;
72125;SDS011;59999;51.676;22.650;2022-08-11T18:45:30;7.68;;;4.50;;
72125;SDS011;59999;51.676;22.650;2022-08-11T18:48:19;8.00;;;4.35;;
72125;SDS011;59999;51.676;22.650;2022-08-11T18:51:05;8.55;;;4.57;;
72125;SDS011;59999;51.676;22.650;2022-08-11T18:53:52;9.63;;;4.30;;
72125;SDS011;59999;51.676;22.650;2022-08-11T18:56:42;8.03;;;4.67;;
72125;SDS011;59999;51.676;22.650;2022-08-11T18:59:30;11.48;;;4.70;;
72125;SDS011;59999;51.676;22.650;2022-08-11T19:02:21;7.38;;;4.07;;
72125;SDS011;59999;51.676;22.650;2022-08-11T19:05:09;10.50;;;4.55;;
72125;SDS011;59999;51.676;22.650;2022-08-11T19:07:57;8.07;;;4.60;;
72125;SDS011;59999;51.676;22.650;2022-08-11T19:10:43;7.17;;;4.00;;
72125;SDS011;59999;51.676;22.650;2022-08-11T19:13:30;7.10;;;4.22;;